Time;durP1;ratioP1;P1;durP2;ratioP2;P2;SDS_P1;SDS_P2;PMS_P1;PMS_P2;Temp;Humidity;BMP_temperature;BMP_pressure;BME280_temperature;BME280_humidity;BME280_pressure;Samples;Min_cycle;Max_cycle;Signal;HPM_P1;HPM_P2
2022/04/09 00:01:04;;;;;;;8.45;0.98;;;;;;;;;;5087973;28;20127;-67
2022/04/09 00:03:30;;;;;;;4.10;0.90;;;;;;;;;;5087367;28;20054;-66
2022/04/09 00:05:56;;;;;;;3.45;0.98;;;;;;;;;;5087990;28;20071;-66
2022/04/09 00:08:22;;;;;;;3.05;0.82;;;;;;;;;;5088152;28;20051;-66
2022/04/09 00:10:48;;;;;;;5.63;1.20;;;;;;;;;;5087773;28;20118;-66
2022/04/09 00:13:14;;;;;;;6.00;1.55;;;;;;;;;;5087867;28;20498;-66
2022/04/09 00:15:41;;;;;;;4.53;1.00;;;;;;;;;;5069739;28;20132;-67
2022/04/09 00:18:07;;;;;;;2.80;0.80;;;;;;;;;;5087830;28;20080;-66
2022/04/09 00:20:33;;;;;;;3.08;0.70;;;;;;;;;;5087848;28;20036;-66
2022/04/09 00:22:59;;;;;;;2.65;0.80;;;;;;;;;;5091887;28;20044;-67
2022/04/09 00:25:26;;;;;;;5.25;1.10;;;;;;;;;;5092228;28;20450;-67
2022/04/09 00:27:52;;;;;;;3.47;1.00;;;;;;;;;;5091162;28;20040;-66
2022/04/09 00:30:18;;;;;;;5.05;1.17;;;;;;;;;;5091811;28;20047;-67
2022/04/09 00:32:44;;;;;;;3.47;1.00;;;;;;;;;;5091486;28;20050;-67
2022/04/09 00:35:11;;;;;;;4.05;1.15;;;;;;;;;;5091829;28;20055;-66
2022/04/09 00:37:46;;;;;;;6.13;1.00;;;;;;;;;;5092040;28;20083;-67
2022/04/09 00:40:13;;;;;;;4.50;1.27;;;;;;;;;;5091353;28;20113;-69
2022/04/09 00:42:41;;;;;;;4.00;1.10;;;;;;;;;;5091733;28;20480;-67
2022/04/09 00:45:08;;;;;;;2.67;0.80;;;;;;;;;;5091544;28;20055;-67
2022/04/09 00:47:37;;;;;;;3.10;0.90;;;;;;;;;;5091959;28;20062;-67
2022/04/09 00:50:05;;;;;;;3.95;0.93;;;;;;;;;;5091506;28;20525;-67
2022/04/09 00:52:34;;;;;;;5.93;1.00;;;;;;;;;;5091261;28;20470;-66
2022/04/09 00:55:01;;;;;;;4.25;0.80;;;;;;;;;;5091480;28;20060;-66
2022/04/09 00:57:27;;;;;;;5.22;1.67;;;;;;;;;;5091326;28;20174;-66
2022/04/09 00:59:55;;;;;;;5.30;0.90;;;;;;;;;;5090894;28;20051;-66
2022/04/09 01:02:21;;;;;;;5.28;1.27;;;;;;;;;;5091429;28;20036;-67
2022/04/09 01:04:49;;;;;;;4.63;1.10;;;;;;;;;;5091248;28;20050;-67
2022/04/09 01:07:15;;;;;;;5.88;1.15;;;;;;;;;;5090847;28;20418;-66
2022/04/09 01:09:45;;;;;;;3.65;0.88;;;;;;;;;;5091528;28;20539;-67
2022/04/09 01:12:11;;;;;;;4.15;1.00;;;;;;;;;;5090942;28;20056;-67
2022/04/09 01:14:37;;;;;;;5.13;1.38;;;;;;;;;;5090807;28;20111;-66
2022/04/09 01:17:03;;;;;;;3.55;1.00;;;;;;;;;;5090840;28;20048;-66
2022/04/09 01:19:29;;;;;;;3.90;1.10;;;;;;;;;;5090903;28;20048;-67
2022/04/09 01:22:01;;;;;;;3.33;1.10;;;;;;;;;;5090337;28;20052;-66
2022/04/09 01:24:27;;;;;;;11.55;1.60;;;;;;;;;;5090409;28;20442;-66
2022/04/09 01:26:54;;;;;;;3.75;1.30;;;;;;;;;;5090550;28;20059;-67
2022/04/09 01:29:20;;;;;;;4.18;0.90;;;;;;;;;;5090855;28;20048;-67
2022/04/09 01:31:46;;;;;;;4.55;0.90;;;;;;;;;;5090251;28;20060;-66
2022/04/09 01:34:15;;;;;;;5.10;0.98;;;;;;;;;;5089697;28;20523;-66
2022/04/09 01:36:41;;;;;;;6.43;1.10;;;;;;;;;;5090864;28;20048;-66
2022/04/09 01:39:07;;;;;;;3.65;0.88;;;;;;;;;;5090816;28;20136;-66
2022/04/09 01:41:33;;;;;;;4.03;0.80;;;;;;;;;;5090597;28;20079;-66
2022/04/09 01:43:59;;;;;;;2.60;0.80;;;;;;;;;;5090405;28;20157;-67
2022/04/09 01:46:25;;;;;;;4.43;1.00;;;;;;;;;;5090314;28;20551;-66
2022/04/09 01:48:51;;;;;;;2.70;0.60;;;;;;;;;;5090840;28;20040;-66
2022/04/09 01:51:17;;;;;;;3.85;0.85;;;;;;;;;;5090139;28;20117;-66
2022/04/09 01:53:43;;;;;;;3.75;1.08;;;;;;;;;;5090632;28;20040;-66
2022/04/09 01:56:09;;;;;;;4.47;1.20;;;;;;;;;;5090378;28;20050;-66
2022/04/09 01:58:35;;;;;;;4.85;0.77;;;;;;;;;;5089816;28;20040;-66
2022/04/09 02:01:01;;;;;;;3.25;0.85;;;;;;;;;;5090310;28;20047;-66
2022/04/09 02:03:27;;;;;;;2.50;0.70;;;;;;;;;;5090215;28;20042;-66
2022/04/09 02:05:53;;;;;;;4.35;0.90;;;;;;;;;;5090034;28;20071;-66
2022/04/09 02:08:20;;;;;;;3.17;0.75;;;;;;;;;;5090267;28;20467;-66
2022/04/09 02:10:46;;;;;;;3.45;0.80;;;;;;;;;;5089320;28;20060;-68
2022/04/09 02:13:13;;;;;;;5.47;1.00;;;;;;;;;;5090036;28;20463;-66
2022/04/09 02:15:39;;;;;;;6.03;0.70;;;;;;;;;;5090177;28;20036;-66
2022/04/09 02:18:05;;;;;;;5.13;0.75;;;;;;;;;;5089815;28;20036;-67
2022/04/09 02:20:33;;;;;;;4.45;1.05;;;;;;;;;;5090107;28;20132;-66
2022/04/09 02:22:59;;;;;;;4.20;1.05;;;;;;;;;;5089302;28;20059;-66
2022/04/09 02:25:25;;;;;;;4.95;0.88;;;;;;;;;;5089983;28;20462;-66
2022/04/09 02:27:51;;;;;;;3.05;0.93;;;;;;;;;;5089314;28;20085;-66
2022/04/09 02:30:17;;;;;;;6.50;0.95;;;;;;;;;;5089546;28;20048;-66
2022/04/09 02:32:51;;;;;;;4.82;1.13;;;;;;;;;;5089165;28;20075;-66
2022/04/09 02:35:17;;;;;;;3.58;0.90;;;;;;;;;;5089389;28;20130;-66
2022/04/09 02:37:43;;;;;;;2.63;0.80;;;;;;;;;;5089280;28;20494;-66
2022/04/09 02:40:10;;;;;;;3.88;0.85;;;;;;;;;;5089487;28;20047;-66
2022/04/09 02:42:37;;;;;;;2.63;1.10;;;;;;;;;;5089186;28;20040;-66
2022/04/09 02:45:04;;;;;;;4.22;1.15;;;;;;;;;;5088711;28;20526;-66
2022/04/09 02:47:30;;;;;;;3.92;0.88;;;;;;;;;;5089270;28;20044;-67
2022/04/09 02:49:56;;;;;;;5.10;0.90;;;;;;;;;;5088880;28;20051;-67
2022/04/09 02:52:22;;;;;;;4.78;0.80;;;;;;;;;;5089343;28;20482;-66
2022/04/09 02:54:48;;;;;;;2.85;0.80;;;;;;;;;;5089392;28;20161;-66
2022/04/09 02:57:14;;;;;;;4.88;0.85;;;;;;;;;;5088874;28;20127;-66
2022/04/09 02:59:40;;;;;;;3.33;0.80;;;;;;;;;;5089036;28;20169;-66
2022/04/09 03:02:06;;;;;;;6.53;0.95;;;;;;;;;;5088943;28;20558;-66
2022/04/09 03:04:32;;;;;;;1.95;0.65;;;;;;;;;;5089065;28;20044;-66
2022/04/09 03:06:59;;;;;;;4.35;0.70;;;;;;;;;;5088557;28;20178;-66
2022/04/09 03:09:25;;;;;;;2.35;0.88;;;;;;;;;;5088857;28;20054;-66
2022/04/09 03:11:51;;;;;;;2.97;0.90;;;;;;;;;;5088562;28;20470;-66
2022/04/09 03:14:17;;;;;;;4.45;0.75;;;;;;;;;;5088908;28;20359;-66
2022/04/09 03:16:43;;;;;;;7.13;0.93;;;;;;;;;;5071129;28;20100;-67
2022/04/09 03:19:09;;;;;;;6.97;0.93;;;;;;;;;;5088369;28;20073;-67
2022/04/09 03:21:35;;;;;;;3.92;0.80;;;;;;;;;;5088946;28;20052;-67
2022/04/09 03:24:01;;;;;;;4.78;1.08;;;;;;;;;;5088662;28;20139;-67
2022/04/09 03:26:27;;;;;;;3.25;0.70;;;;;;;;;;5088527;28;20822;-67
2022/04/09 03:28:53;;;;;;;2.05;0.80;;;;;;;;;;5070068;28;20112;-67
2022/04/09 03:31:19;;;;;;;2.25;0.80;;;;;;;;;;5088565;28;20151;-66
2022/04/09 03:33:47;;;;;;;2.88;0.75;;;;;;;;;;5088859;28;20455;-66
2022/04/09 03:36:13;;;;;;;5.40;0.90;;;;;;;;;;5088408;28;20051;-66
2022/04/09 03:38:41;;;;;;;2.45;0.63;;;;;;;;;;5088726;28;20063;-66
2022/04/09 03:41:07;;;;;;;4.05;0.95;;;;;;;;;;5087753;28;20047;-66
2022/04/09 03:43:33;;;;;;;4.38;0.60;;;;;;;;;;5088172;28;20036;-66
2022/04/09 03:45:59;;;;;;;2.00;0.55;;;;;;;;;;5088651;28;20547;-66
2022/04/09 03:48:25;;;;;;;2.65;0.95;;;;;;;;;;5088641;28;20482;-66
2022/04/09 03:50:51;;;;;;;3.50;1.13;;;;;;;;;;5088379;28;20131;-67
2022/04/09 03:53:20;;;;;;;2.47;0.68;;;;;;;;;;5088095;28;20135;-67
2022/04/09 03:55:49;;;;;;;2.70;0.80;;;;;;;;;;5089623;28;20087;-67
2022/04/09 03:58:16;;;;;;;4.43;1.17;;;;;;;;;;5094983;28;20351;-66
2022/04/09 04:00:42;;;;;;;4.85;0.77;;;;;;;;;;5095036;28;20036;-66
2022/04/09 04:03:09;;;;;;;4.53;0.98;;;;;;;;;;5094947;28;20035;-66
2022/04/09 04:05:36;;;;;;;4.20;0.70;;;;;;;;;;5094907;28;20490;-66
2022/04/09 04:08:03;;;;;;;2.38;0.70;;;;;;;;;;5094718;28;20052;-66
2022/04/09 04:10:29;;;;;;;3.38;0.88;;;;;;;;;;5076678;28;20146;-66
2022/04/09 04:12:56;;;;;;;4.25;0.70;;;;;;;;;;5094753;28;20040;-66
2022/04/09 04:15:22;;;;;;;3.55;1.10;;;;;;;;;;5095245;28;20044;-66
2022/04/09 04:17:49;;;;;;;2.35;0.63;;;;;;;;;;5094836;28;20040;-66
2022/04/09 04:20:15;;;;;;;3.03;0.82;;;;;;;;;;5094531;28;20047;-66
2022/04/09 04:22:41;;;;;;;2.40;0.90;;;;;;;;;;5094563;28;20075;-66
2022/04/09 04:25:09;;;;;;;3.75;0.90;;;;;;;;;;5094389;28;20354;-66
2022/04/09 04:27:40;;;;;;;3.45;0.80;;;;;;;;;;5094081;28;20063;-66
2022/04/09 04:30:07;;;;;;;6.32;0.77;;;;;;;;;;5093528;28;20088;-66
2022/04/09 04:32:33;;;;;;;3.63;0.75;;;;;;;;;;5094091;28;20395;-66
2022/04/09 04:34:59;;;;;;;4.13;0.70;;;;;;;;;;5093784;28;20475;-66
2022/04/09 04:37:25;;;;;;;3.30;0.75;;;;;;;;;;5094058;28;20044;-66
2022/04/09 04:39:51;;;;;;;2.58;0.77;;;;;;;;;;5093280;28;20047;-66
2022/04/09 04:42:17;;;;;;;5.70;1.17;;;;;;;;;;5093263;28;20047;-66
2022/04/09 04:44:44;;;;;;;2.72;0.93;;;;;;;;;;5094134;28;20079;-67
2022/04/09 04:47:10;;;;;;;3.83;0.82;;;;;;;;;;5094067;28;20051;-66
2022/04/09 04:49:36;;;;;;;2.22;0.65;;;;;;;;;;5094219;28;20098;-67
2022/04/09 04:52:03;;;;;;;2.30;0.68;;;;;;;;;;5093979;28;20460;-67
2022/04/09 04:54:29;;;;;;;3.88;0.90;;;;;;;;;;5093863;28;20040;-66
2022/04/09 04:56:55;;;;;;;2.53;0.90;;;;;;;;;;5094219;28;20044;-67
2022/04/09 04:59:21;;;;;;;3.55;0.70;;;;;;;;;;5094425;28;20044;-67
2022/04/09 05:01:47;;;;;;;3.65;0.73;;;;;;;;;;5094565;28;20040;-67
2022/04/09 05:04:13;;;;;;;1.77;1.00;;;;;;;;;;5094314;28;20047;-67
2022/04/09 05:06:39;;;;;;;4.47;0.90;;;;;;;;;;5092907;28;20055;-66
2022/04/09 05:09:06;;;;;;;3.42;1.08;;;;;;;;;;5083753;28;20411;-66
2022/04/09 05:11:32;;;;;;;3.08;0.80;;;;;;;;;;5077720;28;20060;-66
2022/04/09 05:13:58;;;;;;;4.97;0.90;;;;;;;;;;5070874;28;20125;-66
2022/04/09 05:16:24;;;;;;;6.07;0.90;;;;;;;;;;5071230;28;20088;-67
2022/04/09 05:18:50;;;;;;;5.05;0.73;;;;;;;;;;5070307;28;20101;-66
2022/04/09 05:21:16;;;;;;;5.07;0.80;;;;;;;;;;5071011;28;20359;-66
2022/04/09 05:23:42;;;;;;;5.35;1.30;;;;;;;;;;5070984;28;20045;-66
2022/04/09 05:26:08;;;;;;;3.60;0.85;;;;;;;;;;5070717;28;20040;-66
2022/04/09 05:28:34;;;;;;;3.55;0.90;;;;;;;;;;5070657;28;20052;-66
2022/04/09 05:31:00;;;;;;;6.55;1.23;;;;;;;;;;5070855;28;20410;-66
2022/04/09 05:33:27;;;;;;;6.00;1.08;;;;;;;;;;5070839;28;20479;-66
2022/04/09 05:35:54;;;;;;;4.10;0.90;;;;;;;;;;5070251;28;20127;-66
2022/04/09 05:38:21;;;;;;;6.50;0.85;;;;;;;;;;5070887;28;20473;-66
2022/04/09 05:40:47;;;;;;;3.13;0.63;;;;;;;;;;5069872;28;20962;-66
2022/04/09 05:43:13;;;;;;;3.10;0.80;;;;;;;;;;5070358;28;20418;-66
2022/04/09 05:45:39;;;;;;;3.08;0.88;;;;;;;;;;5070641;28;20465;-66
2022/04/09 05:48:05;;;;;;;3.38;0.75;;;;;;;;;;5070470;28;20040;-65
2022/04/09 05:50:31;;;;;;;4.65;1.17;;;;;;;;;;5070456;28;20052;-65
2022/04/09 05:52:57;;;;;;;3.40;0.80;;;;;;;;;;5052120;28;20048;-65
2022/04/09 05:55:23;;;;;;;3.30;0.90;;;;;;;;;;5069898;28;20044;-65
2022/04/09 05:57:49;;;;;;;3.70;0.98;;;;;;;;;;5070245;28;20384;-65
2022/04/09 06:00:16;;;;;;;3.60;0.98;;;;;;;;;;5052019;28;20099;-65
2022/04/09 06:02:43;;;;;;;3.33;0.80;;;;;;;;;;5070189;28;20185;-65
2022/04/09 06:05:10;;;;;;;4.00;1.33;;;;;;;;;;5052074;28;20127;-65
2022/04/09 06:07:36;;;;;;;2.47;0.68;;;;;;;;;;5069767;28;20040;-65
2022/04/09 06:10:03;;;;;;;3.70;1.00;;;;;;;;;;5069573;28;20135;-65
2022/04/09 06:12:29;;;;;;;3.80;0.80;;;;;;;;;;5052189;28;20464;-66
2022/04/09 06:14:56;;;;;;;4.00;0.80;;;;;;;;;;5069759;28;20044;-65
2022/04/09 06:17:25;;;;;;;5.05;1.00;;;;;;;;;;5070119;28;20078;-68
2022/04/09 06:19:51;;;;;;;3.08;1.00;;;;;;;;;;5069179;28;20538;-65
2022/04/09 06:22:18;;;;;;;4.32;0.63;;;;;;;;;;5069806;28;20131;-65
2022/04/09 06:24:44;;;;;;;1.67;0.68;;;;;;;;;;5070075;28;20517;-66
2022/04/09 06:27:13;;;;;;;3.88;1.00;;;;;;;;;;5051758;28;20135;-66
2022/04/09 06:29:39;;;;;;;1.50;0.60;;;;;;;;;;5069873;28;20048;-66
2022/04/09 06:32:06;;;;;;;4.05;1.00;;;;;;;;;;5069750;28;20127;-67
2022/04/09 06:34:32;;;;;;;3.20;0.88;;;;;;;;;;5069441;28;20080;-67
2022/04/09 06:36:59;;;;;;;1.83;0.70;;;;;;;;;;5051519;28;20532;-66
2022/04/09 06:39:25;;;;;;;3.55;1.00;;;;;;;;;;5069798;28;20052;-66
2022/04/09 06:41:51;;;;;;;5.10;1.00;;;;;;;;;;5069031;28;20048;-66
2022/04/09 06:44:18;;;;;;;4.20;0.85;;;;;;;;;;5068829;28;20487;-66
2022/04/09 06:46:46;;;;;;;7.95;1.50;;;;;;;;;;5069543;28;20052;-66
2022/04/09 06:49:15;;;;;;;3.00;0.70;;;;;;;;;;5069321;28;20041;-67
2022/04/09 06:51:42;;;;;;;2.80;0.88;;;;;;;;;;5069364;28;20041;-66
2022/04/09 06:54:09;;;;;;;3.15;0.70;;;;;;;;;;5069742;28;20043;-67
2022/04/09 06:56:36;;;;;;;1.90;0.55;;;;;;;;;;5070656;28;20122;-67
2022/04/09 06:59:03;;;;;;;3.47;1.00;;;;;;;;;;5069374;28;20041;-67
2022/04/09 07:01:30;;;;;;;4.40;1.10;;;;;;;;;;5070155;28;20510;-67
2022/04/09 07:03:56;;;;;;;6.43;1.05;;;;;;;;;;5069466;28;20091;-67
2022/04/09 07:06:22;;;;;;;4.15;1.20;;;;;;;;;;5070209;28;20117;-67
2022/04/09 07:08:48;;;;;;;5.00;1.00;;;;;;;;;;5075484;28;20067;-67
2022/04/09 07:11:14;;;;;;;5.13;1.02;;;;;;;;;;5070366;28;20139;-67
2022/04/09 07:13:40;;;;;;;3.08;1.13;;;;;;;;;;5068818;28;20049;-68
2022/04/09 07:16:06;;;;;;;3.90;0.90;;;;;;;;;;5068916;28;20049;-69
2022/04/09 07:18:33;;;;;;;6.50;1.40;;;;;;;;;;5068976;28;20135;-69
2022/04/09 07:21:01;;;;;;;9.80;0.95;;;;;;;;;;5068856;28;20064;-69
2022/04/09 07:23:27;;;;;;;4.47;1.08;;;;;;;;;;5068835;28;20128;-69
2022/04/09 07:25:53;;;;;;;4.07;0.77;;;;;;;;;;5068252;28;20047;-69
2022/04/09 07:28:19;;;;;;;2.38;0.80;;;;;;;;;;5068860;28;20091;-69
2022/04/09 07:30:46;;;;;;;4.35;0.93;;;;;;;;;;5067674;28;20059;-69
2022/04/09 07:33:12;;;;;;;3.35;0.70;;;;;;;;;;5068686;28;20051;-70
2022/04/09 07:35:38;;;;;;;2.78;0.68;;;;;;;;;;5068101;28;20060;-69
2022/04/09 07:38:07;;;;;;;3.25;0.75;;;;;;;;;;5068252;28;20135;-70
2022/04/09 07:40:33;;;;;;;2.97;0.70;;;;;;;;;;5068426;28;20064;-69
2022/04/09 07:43:00;;;;;;;3.03;0.70;;;;;;;;;;5068622;28;20079;-69
2022/04/09 07:45:26;;;;;;;3.58;0.90;;;;;;;;;;5068289;28;20465;-69
2022/04/09 07:48:00;;;;;;;2.53;0.70;;;;;;;;;;5068565;28;20049;-70
2022/04/09 07:50:26;;;;;;;3.65;0.60;;;;;;;;;;5068172;28;20063;-69
2022/04/09 07:52:53;;;;;;;6.15;0.80;;;;;;;;;;5068461;28;20045;-69
2022/04/09 07:55:19;;;;;;;2.78;0.85;;;;;;;;;;5033957;28;20482;-70
2022/04/09 07:57:46;;;;;;;3.92;0.80;;;;;;;;;;5068674;28;20044;-69
2022/04/09 08:00:15;;;;;;;3.33;0.95;;;;;;;;;;5068619;28;20467;-68
2022/04/09 08:02:41;;;;;;;;;;;;;;;;;;5068483;28;20040;-70
2022/04/09 08:05:10;;;;;;;2.25;0.80;;;;;;;;;;5068260;28;20275;-69
2022/04/09 08:07:37;;;;;;;3.70;0.80;;;;;;;;;;5068843;28;20127;-69
2022/04/09 08:10:03;;;;;;;3.80;1.00;;;;;;;;;;5067989;28;20041;-69
2022/04/09 08:12:29;;;;;;;3.10;1.00;;;;;;;;;;5068563;28;20044;-69
2022/04/09 08:14:55;;;;;;;1.98;0.60;;;;;;;;;;5049732;28;20053;-70
2022/04/09 08:17:21;;;;;;;3.65;0.70;;;;;;;;;;5068426;28;20041;-69
2022/04/09 08:19:48;;;;;;;2.83;0.90;;;;;;;;;;5068312;28;20048;-68
2022/04/09 08:22:14;;;;;;;4.10;0.70;;;;;;;;;;5068391;28;20137;-69
2022/04/09 08:24:41;;;;;;;3.05;0.88;;;;;;;;;;5075870;28;20087;-70
2022/04/09 08:27:10;;;;;;;2.95;0.60;;;;;;;;;;5070936;28;20051;-69
2022/04/09 08:29:36;;;;;;;3.90;0.90;;;;;;;;;;5087428;28;20044;-69
2022/04/09 08:32:04;;;;;;;3.35;0.82;;;;;;;;;;5087839;28;20086;-70
2022/04/09 08:34:31;;;;;;;6.20;1.02;;;;;;;;;;5088096;28;20091;-70
2022/04/09 08:36:57;;;;;;;3.60;0.70;;;;;;;;;;5086513;28;20696;-70
2022/04/09 08:39:24;;;;;;;4.90;1.27;;;;;;;;;;5085981;28;20059;-70
2022/04/09 08:41:50;;;;;;;3.53;1.02;;;;;;;;;;5087852;28;20040;-70
2022/04/09 08:44:17;;;;;;;6.35;1.15;;;;;;;;;;5057411;28;20052;-70
2022/04/09 08:46:45;;;;;;;3.25;1.23;;;;;;;;;;5091998;28;20509;-70
2022/04/09 08:49:12;;;;;;;3.30;0.70;;;;;;;;;;5091107;28;20410;-69
2022/04/09 08:51:38;;;;;;;5.13;1.25;;;;;;;;;;5091927;28;20074;-71
2022/04/09 08:54:04;;;;;;;5.13;1.10;;;;;;;;;;5091476;28;20043;-70
2022/04/09 08:56:33;;;;;;;3.17;1.08;;;;;;;;;;5090723;28;20063;-69
2022/04/09 08:58:59;;;;;;;4.38;0.80;;;;;;;;;;5091078;28;20214;-69
2022/04/09 09:01:26;;;;;;;3.05;0.90;;;;;;;;;;5076474;28;20070;-69
2022/04/09 09:03:52;;;;;;;3.70;0.90;;;;;;;;;;5082017;28;20036;-69
2022/04/09 09:06:31;;;;;;;3.08;0.93;;;;;;;;;;5091105;28;20085;-70
2022/04/09 09:08:58;;;;;;;4.23;0.93;;;;;;;;;;5073305;28;20044;-69
2022/04/09 09:11:26;;;;;;;3.85;1.08;;;;;;;;;;5090197;28;20437;-69
2022/04/09 09:13:53;;;;;;;4.10;1.02;;;;;;;;;;5072694;28;20047;-70
2022/04/09 09:16:25;;;;;;;4.82;1.10;;;;;;;;;;5091458;28;20527;-70
2022/04/09 09:18:51;;;;;;;3.00;0.75;;;;;;;;;;5071331;28;20094;-70
2022/04/09 09:21:20;;;;;;;3.20;0.80;;;;;;;;;;5070947;28;20047;-69
2022/04/09 09:23:46;;;;;;;3.47;0.98;;;;;;;;;;5080587;28;20559;-69
2022/04/09 09:26:19;;;;;;;2.63;0.55;;;;;;;;;;5085660;28;20040;-69
2022/04/09 09:28:54;;;;;;;3.97;1.35;;;;;;;;;;5075462;28;20122;-69
2022/04/09 09:31:20;;;;;;;3.25;1.05;;;;;;;;;;5071525;28;20048;-68
2022/04/09 09:33:49;;;;;;;2.95;0.68;;;;;;;;;;5090515;28;20055;-68
2022/04/09 09:36:15;;;;;;;3.05;0.80;;;;;;;;;;5089687;28;20085;-69
2022/04/09 09:38:41;;;;;;;3.03;1.08;;;;;;;;;;5089551;28;20113;-68
2022/04/09 09:41:21;;;;;;;3.05;0.90;;;;;;;;;;5089967;28;20047;-69
2022/04/09 09:44:00;;;;;;;4.32;1.00;;;;;;;;;;5090588;28;20044;-69
2022/04/09 09:46:26;;;;;;;4.28;0.85;;;;;;;;;;5090717;28;20474;-69
2022/04/09 09:48:52;;;;;;;4.63;1.13;;;;;;;;;;5091115;28;20426;-69
2022/04/09 09:51:25;;;;;;;3.67;1.00;;;;;;;;;;5073672;28;20067;-68
2022/04/09 09:54:02;;;;;;;3.00;0.82;;;;;;;;;;5070164;28;20132;-70
2022/04/09 09:56:45;;;;;;;4.15;0.90;;;;;;;;;;5077117;28;20043;-70
2022/04/09 09:59:12;;;;;;;3.58;0.98;;;;;;;;;;5089674;28;20092;-69
2022/04/09 10:01:39;;;;;;;5.63;0.90;;;;;;;;;;5090439;28;20044;-69
2022/04/09 10:04:06;;;;;;;4.55;0.98;;;;;;;;;;5090246;28;20524;-68
2022/04/09 10:06:33;;;;;;;4.30;0.80;;;;;;;;;;5090105;28;20498;-68
2022/04/09 10:08:59;;;;;;;3.92;0.98;;;;;;;;;;5089863;28;20052;-69
2022/04/09 10:11:27;;;;;;;2.53;0.60;;;;;;;;;;5090346;28;20070;-69
2022/04/09 10:13:56;;;;;;;2.25;0.75;;;;;;;;;;5090017;28;20051;-68
2022/04/09 10:16:23;;;;;;;3.25;0.90;;;;;;;;;;5090153;28;20040;-68
2022/04/09 10:18:49;;;;;;;2.38;0.60;;;;;;;;;;5090296;28;20059;-68
2022/04/09 10:21:18;;;;;;;3.30;1.17;;;;;;;;;;5071878;28;20105;-68
2022/04/09 10:23:44;;;;;;;;;;;;;;;;;;5090466;28;20378;-68
2022/04/09 10:26:11;;;;;;;2.55;0.68;;;;;;;;;;5090066;28;19927;-68
2022/04/09 10:28:38;;;;;;;2.72;0.85;;;;;;;;;;5089700;28;20050;-69
2022/04/09 10:31:40;;;;;;;3.33;0.88;;;;;;;;;;5089958;28;20494;-69
2022/04/09 10:34:07;;;;;;;2.55;0.73;;;;;;;;;;5007381;28;20216;-68
2022/04/09 10:36:45;;;;;;;4.28;0.90;;;;;;;;;;5073380;28;20479;-69
2022/04/09 10:39:23;;;;;;;3.13;0.63;;;;;;;;;;5089244;28;20097;-69
2022/04/09 10:41:55;;;;;;;4.43;0.90;;;;;;;;;;5088974;28;20093;-68
2022/04/09 10:44:52;;;;;;;4.45;1.20;;;;;;;;;;5089604;28;20498;-68
2022/04/09 10:47:18;;;;;;;6.10;1.50;;;;;;;;;;5076182;28;20474;-69
2022/04/09 10:50:05;;;;;;;4.15;1.20;;;;;;;;;;5069602;28;20087;-68
2022/04/09 10:52:32;;;;;;;5.78;1.40;;;;;;;;;;5077706;28;20529;-69
2022/04/09 10:55:10;;;;;;;3.50;1.42;;;;;;;;;;5089714;28;20048;-68
2022/04/09 10:57:44;;;;;;;3.40;1.30;;;;;;;;;;5089000;28;20040;-68
2022/04/09 11:00:31;;;;;;;6.70;1.27;;;;;;;;;;5088507;28;20047;-68
2022/04/09 11:03:26;;;;;;;3.60;1.13;;;;;;;;;;5088707;28;20047;-68
2022/04/09 11:06:12;;;;;;;6.60;1.33;;;;;;;;;;5070440;28;20052;-68
2022/04/09 11:08:40;;;;;;;5.25;1.30;;;;;;;;;;5072415;28;20040;-69
2022/04/09 11:11:06;;;;;;;4.20;1.20;;;;;;;;;;5068838;28;20123;-68
2022/04/09 11:13:32;;;;;;;7.78;1.88;;;;;;;;;;5068487;28;20044;-68
2022/04/09 11:15:58;;;;;;;3.38;1.17;;;;;;;;;;5069003;28;20057;-69
2022/04/09 11:18:25;;;;;;;4.10;1.20;;;;;;;;;;5069029;28;20045;-70
2022/04/09 11:20:52;;;;;;;4.22;1.20;;;;;;;;;;5087656;28;20048;-69
2022/04/09 11:23:20;;;;;;;4.28;1.02;;;;;;;;;;5087811;28;20097;-68
2022/04/09 11:25:47;;;;;;;6.15;1.13;;;;;;;;;;5088854;28;20097;-69
2022/04/09 11:28:13;;;;;;;3.83;1.08;;;;;;;;;;5088767;28;20040;-69
2022/04/09 11:30:53;;;;;;;3.92;1.10;;;;;;;;;;5088532;28;20048;-69
2022/04/09 11:33:19;;;;;;;5.22;1.80;;;;;;;;;;5088678;28;20055;-70
2022/04/09 11:35:45;;;;;;;7.70;2.42;;;;;;;;;;5069223;28;20059;-70
2022/04/09 11:38:11;;;;;;;6.22;2.10;;;;;;;;;;5087766;28;20095;-69
2022/04/09 11:40:46;;;;;;;6.00;1.90;;;;;;;;;;5088804;28;20494;-69
2022/04/09 11:43:13;;;;;;;7.65;2.35;;;;;;;;;;5087537;28;20036;-68
2022/04/09 11:45:39;;;;;;;6.90;1.98;;;;;;;;;;5070285;28;20490;-69
2022/04/09 11:48:06;;;;;;;6.80;2.10;;;;;;;;;;5087859;28;20131;-69
2022/04/09 11:50:32;;;;;;;6.30;2.13;;;;;;;;;;5088516;28;20032;-69
2022/04/09 11:53:13;;;;;;;6.32;2.58;;;;;;;;;;5087589;28;20097;-69
2022/04/09 11:55:40;;;;;;;5.78;2.50;;;;;;;;;;5088560;28;20100;-68
2022/04/09 11:58:07;;;;;;;5.60;1.95;;;;;;;;;;5070482;28;20075;-67
2022/04/09 12:00:36;;;;;;;6.35;2.13;;;;;;;;;;5088004;28;20091;-69
2022/04/09 12:03:02;;;;;;;9.37;2.30;;;;;;;;;;5088204;28;20155;-68
2022/04/09 12:05:34;;;;;;;12.27;2.65;;;;;;;;;;5088330;28;20040;-68
2022/04/09 12:08:00;;;;;;;10.07;2.05;;;;;;;;;;5088508;28;20275;-68
2022/04/09 12:10:27;;;;;;;7.03;2.30;;;;;;;;;;5087244;28;20089;-67
2022/04/09 12:13:01;;;;;;;8.27;2.10;;;;;;;;;;5087334;28;20076;-67
2022/04/09 12:15:30;;;;;;;14.20;2.38;;;;;;;;;;5087597;28;20440;-67
2022/04/09 12:17:56;;;;;;;11.73;2.03;;;;;;;;;;5089630;28;20048;-68
2022/04/09 12:20:32;;;;;;;8.50;2.30;;;;;;;;;;5090630;28;20040;-67
2022/04/09 12:22:58;;;;;;;9.68;1.98;;;;;;;;;;5090996;28;20136;-68
2022/04/09 12:25:53;;;;;;;7.95;1.92;;;;;;;;;;5090927;28;20575;-67
2022/04/09 12:28:20;;;;;;;8.77;1.75;;;;;;;;;;5061141;28;20063;-67
2022/04/09 12:30:47;;;;;;;7.40;1.58;;;;;;;;;;5071437;28;20051;-67
2022/04/09 12:33:14;;;;;;;10.07;1.70;;;;;;;;;;5071242;28;20056;-67
2022/04/09 12:35:40;;;;;;;6.78;1.20;;;;;;;;;;5068874;28;20056;-67
2022/04/09 12:38:06;;;;;;;10.18;1.30;;;;;;;;;;5071157;28;20095;-67
2022/04/09 12:40:32;;;;;;;7.43;1.67;;;;;;;;;;5073486;28;20072;-67
2022/04/09 12:43:00;;;;;;;8.27;1.67;;;;;;;;;;5091259;28;20516;-67
2022/04/09 12:45:27;;;;;;;10.13;1.95;;;;;;;;;;5091737;28;20381;-67
2022/04/09 12:48:05;;;;;;;9.88;1.40;;;;;;;;;;5091564;28;20126;-67
2022/04/09 12:50:34;;;;;;;7.25;1.23;;;;;;;;;;5091864;28;20048;-66
2022/04/09 12:53:02;;;;;;;6.40;1.20;;;;;;;;;;5091375;28;20074;-66
2022/04/09 12:55:30;;;;;;;6.05;1.48;;;;;;;;;;5090972;28;20040;-67
2022/04/09 12:57:56;;;;;;;6.80;1.55;;;;;;;;;;5071196;28;20102;-67
2022/04/09 13:00:23;;;;;;;5.50;1.40;;;;;;;;;;5086602;28;20505;-67
2022/04/09 13:02:49;;;;;;;5.20;1.48;;;;;;;;;;5091039;28;20459;-67
2022/04/09 13:05:16;;;;;;;5.38;1.20;;;;;;;;;;5091376;28;20040;-68
2022/04/09 13:07:43;;;;;;;4.28;1.30;;;;;;;;;;5090438;28;20036;-67
2022/04/09 13:10:10;;;;;;;5.47;1.05;;;;;;;;;;5090561;28;20040;-67
2022/04/09 13:12:36;;;;;;;4.40;1.58;;;;;;;;;;5091388;28;20422;-67
2022/04/09 13:15:02;;;;;;;5.63;1.48;;;;;;;;;;5091103;28;20078;-67
2022/04/09 13:17:30;;;;;;;4.68;1.25;;;;;;;;;;5090776;28;20589;-67
2022/04/09 13:19:56;;;;;;;4.38;1.17;;;;;;;;;;5091000;28;20050;-67
2022/04/09 13:22:22;;;;;;;5.45;1.50;;;;;;;;;;5091296;28;20044;-67
2022/04/09 13:24:48;;;;;;;5.47;1.13;;;;;;;;;;5091070;28;20131;-67
2022/04/09 13:27:14;;;;;;;5.95;1.42;;;;;;;;;;5090636;28;20143;-65
2022/04/09 13:29:40;;;;;;;3.45;0.90;;;;;;;;;;5089712;28;20040;-67
2022/04/09 13:32:06;;;;;;;3.15;0.80;;;;;;;;;;5091068;28;20046;-67
2022/04/09 13:34:32;;;;;;;3.67;0.90;;;;;;;;;;5090666;28;20467;-67
2022/04/09 13:36:59;;;;;;;4.10;1.00;;;;;;;;;;5090716;28;20498;-66
2022/04/09 13:39:25;;;;;;;4.05;1.05;;;;;;;;;;5090435;28;20048;-67
2022/04/09 13:41:51;;;;;;;6.63;1.10;;;;;;;;;;5090581;28;20117;-67
2022/04/09 13:44:17;;;;;;;3.42;0.70;;;;;;;;;;5090111;28;20516;-67
2022/04/09 13:46:43;;;;;;;4.28;1.10;;;;;;;;;;5090648;28;20090;-67
2022/04/09 13:49:09;;;;;;;4.50;1.10;;;;;;;;;;5090424;28;20059;-67
2022/04/09 13:51:35;;;;;;;4.15;0.98;;;;;;;;;;5071783;28;20044;-67
2022/04/09 13:54:01;;;;;;;2.95;0.65;;;;;;;;;;5089571;28;20048;-66
2022/04/09 13:56:27;;;;;;;7.40;1.17;;;;;;;;;;5089766;28;20043;-66
2022/04/09 13:58:53;;;;;;;3.78;1.00;;;;;;;;;;5089453;28;20046;-66
2022/04/09 14:01:20;;;;;;;3.42;0.70;;;;;;;;;;5089071;28;20135;-66
2022/04/09 14:03:46;;;;;;;5.25;0.93;;;;;;;;;;5089549;28;20154;-66
2022/04/09 14:06:12;;;;;;;3.55;0.88;;;;;;;;;;5088927;28;20563;-67
2022/04/09 14:08:38;;;;;;;4.40;0.98;;;;;;;;;;5089800;28;20088;-66
2022/04/09 14:11:04;;;;;;;3.28;0.80;;;;;;;;;;5088794;28;20062;-66
2022/04/09 14:13:30;;;;;;;4.35;0.80;;;;;;;;;;5070501;28;20044;-67
2022/04/09 14:15:56;;;;;;;5.25;1.17;;;;;;;;;;5088598;28;20048;-67
2022/04/09 14:18:22;;;;;;;2.63;0.85;;;;;;;;;;5087456;28;20047;-70
2022/04/09 14:20:49;;;;;;;3.50;0.75;;;;;;;;;;5071032;28;20091;-69
2022/04/09 14:23:15;;;;;;;6.43;1.88;;;;;;;;;;5080495;28;20052;-68
2022/04/09 14:25:41;;;;;;;7.40;0.85;;;;;;;;;;5088555;28;20132;-69
2022/04/09 14:28:08;;;;;;;4.32;0.90;;;;;;;;;;5089270;28;20101;-69
2022/04/09 14:30:34;;;;;;;2.35;0.73;;;;;;;;;;5088663;28;20055;-68
2022/04/09 14:33:00;;;;;;;3.40;0.90;;;;;;;;;;5088773;28;20058;-68
2022/04/09 14:35:28;;;;;;;2.20;0.68;;;;;;;;;;5088871;28;20106;-68
2022/04/09 14:37:54;;;;;;;4.13;1.23;;;;;;;;;;5089010;28;20437;-68
2022/04/09 14:40:21;;;;;;;3.30;0.82;;;;;;;;;;5087970;28;20055;-67
2022/04/09 14:42:47;;;;;;;3.45;0.90;;;;;;;;;;5088654;28;20402;-70
2022/04/09 14:45:16;;;;;;;4.32;1.08;;;;;;;;;;5070464;28;20083;-67